Time;durP1;ratioP1;P1;durP2;ratioP2;P2;SDS_P1;SDS_P2;PMS_P1;PMS_P2;Temp;Humidity;BMP_temperature;BMP_pressure;BME280_temperature;BME280_humidity;BME280_pressure;Samples;Min_cycle;Max_cycle;Signal;HPM_P1;HPM_P2
2022/10/24 00:03:30;;;;;;;87.75;25.48;;;;;;;;;;8342623;28;20119;-85
2022/10/24 00:07:32;;;;;;;69.32;21.60;;;;;;;;;;8368233;28;20040;-85
2022/10/24 00:11:37;;;;;;;75.53;22.58;;;;;;;;;;8367669;28;20055;-85
2022/10/24 00:15:44;;;;;;;72.40;23.60;;;;;;;;;;8339689;28;20040;-86
2022/10/24 00:19:46;;;;;;;77.30;21.70;;;;;;;;;;8339907;28;20468;-85
2022/10/24 00:23:49;;;;;;;84.43;23.85;;;;;;;;;;8353180;28;20056;-85
2022/10/24 00:27:51;;;;;;;83.97;24.15;;;;;;;;;;8367619;28;20056;-85
2022/10/24 00:31:55;;;;;;;67.13;20.23;;;;;;;;;;8367638;28;20056;-85
2022/10/24 00:35:58;;;;;;;83.85;23.73;;;;;;;;;;8346048;28;20174;-86
2022/10/24 00:40:00;;;;;;;102.22;25.75;;;;;;;;;;8346391;28;20114;-86
2022/10/24 00:44:18;;;;;;;88.55;24.00;;;;;;;;;;8366948;28;20087;-85
2022/10/24 00:48:28;;;;;;;92.95;24.65;;;;;;;;;;8358861;28;20037;-86
2022/10/24 00:52:34;;;;;;;86.28;23.58;;;;;;;;;;8365893;28;20045;-86
2022/10/24 00:56:41;;;;;;;87.22;24.08;;;;;;;;;;8333149;28;20412;-85
2022/10/24 01:00:44;;;;;;;78.40;23.23;;;;;;;;;;8355820;28;20068;-85
2022/10/24 01:04:49;;;;;;;79.63;22.52;;;;;;;;;;8351950;28;20099;-85
2022/10/24 01:09:02;;;;;;;89.72;23.90;;;;;;;;;;8333190;28;20068;-87
2022/10/24 01:13:15;;;;;;;72.38;22.02;;;;;;;;;;8333701;28;20428;-85
2022/10/24 01:17:26;;;;;;;76.97;22.45;;;;;;;;;;8333063;28;20044;-85
2022/10/24 01:21:34;;;;;;;74.40;24.92;;;;;;;;;;8320246;28;20102;-88
2022/10/24 01:25:47;;;;;;;78.28;23.40;;;;;;;;;;8356316;28;20069;-86
2022/10/24 01:30:06;;;;;;;70.32;22.80;;;;;;;;;;8365564;28;20048;-85
2022/10/24 01:34:14;;;;;;;56.58;19.90;;;;;;;;;;8365393;28;20049;-86
2022/10/24 01:38:22;;;;;;;72.15;21.52;;;;;;;;;;8342729;28;20489;-85
2022/10/24 01:42:28;;;;;;;70.90;21.42;;;;;;;;;;8332252;28;20052;-85
2022/10/24 01:46:35;;;;;;;65.45;22.92;;;;;;;;;;8332128;28;20042;-85
2022/10/24 01:50:40;;;;;;;70.55;20.73;;;;;;;;;;8331999;28;20124;-87
2022/10/24 01:54:43;;;;;;;86.82;22.83;;;;;;;;;;8331301;28;20069;-85
2022/10/24 01:58:46;;;;;;;69.40;20.13;;;;;;;;;;8340371;28;20159;-85
2022/10/24 02:02:54;;;;;;;62.47;20.38;;;;;;;;;;8364421;28;20049;-85
2022/10/24 02:06:59;;;;;;;71.95;22.38;;;;;;;;;;8364522;28;20052;-85
2022/10/24 02:11:06;;;;;;;84.57;23.08;;;;;;;;;;8364103;28;20055;-87
2022/10/24 02:15:15;;;;;;;85.40;23.45;;;;;;;;;;8364099;28;20043;-86
2022/10/24 02:19:20;;;;;;;74.40;22.95;;;;;;;;;;8364350;28;20496;-87
2022/10/24 02:23:31;;;;;;;104.65;25.63;;;;;;;;;;8349254;28;20045;-85
2022/10/24 02:27:39;;;;;;;95.55;24.23;;;;;;;;;;8363648;28;20119;-86
2022/10/24 02:31:48;;;;;;;89.57;24.77;;;;;;;;;;8363708;28;20120;-85
2022/10/24 02:35:53;;;;;;;93.60;24.95;;;;;;;;;;8335471;28;20046;-85
2022/10/24 02:39:57;;;;;;;102.90;30.45;;;;;;;;;;8335356;28;20119;-85
2022/10/24 02:44:02;;;;;;;95.82;24.23;;;;;;;;;;8363198;28;20049;-85
2022/10/24 02:48:09;;;;;;;84.05;24.45;;;;;;;;;;8330079;28;20127;-85
2022/10/24 02:52:14;;;;;;;96.68;25.88;;;;;;;;;;8330126;28;20100;-85
2022/10/24 02:56:16;;;;;;;95.25;24.52;;;;;;;;;;8360024;28;20057;-85
2022/10/24 03:00:19;;;;;;;88.72;25.17;;;;;;;;;;8344895;28;20244;-86
2022/10/24 03:04:22;;;;;;;103.40;25.45;;;;;;;;;;8334815;28;20072;-85
2022/10/24 03:08:26;;;;;;;108.30;26.13;;;;;;;;;;8362530;28;20083;-85
2022/10/24 03:12:28;;;;;;;110.07;25.67;;;;;;;;;;8362871;28;20123;-85
2022/10/24 03:16:31;;;;;;;109.95;26.98;;;;;;;;;;8347821;28;20071;-85
2022/10/24 03:20:33;;;;;;;94.95;24.42;;;;;;;;;;8351978;28;20549;-86
2022/10/24 03:24:37;;;;;;;98.25;24.77;;;;;;;;;;8351519;28;20045;-85
2022/10/24 03:28:40;;;;;;;100.97;24.20;;;;;;;;;;8335793;28;20056;-86
2022/10/24 03:32:42;;;;;;;110.00;43.70;;;;;;;;;;8361906;28;20722;-85
2022/10/24 03:36:45;;;;;;;130.10;40.67;;;;;;;;;;8362218;28;20041;-85
2022/10/24 03:40:49;;;;;;;176.07;82.47;;;;;;;;;;8361947;28;20098;-87
2022/10/24 03:44:51;;;;;;;152.32;67.93;;;;;;;;;;8362237;28;20040;-86
2022/10/24 03:48:54;;;;;;;236.57;121.53;;;;;;;;;;8332800;28;20041;-85
2022/10/24 03:52:56;;;;;;;235.23;119.22;;;;;;;;;;8355219;28;20119;-85
2022/10/24 03:57:00;;;;;;;216.18;110.30;;;;;;;;;;8361791;28;20057;-85
2022/10/24 04:01:02;;;;;;;186.10;98.82;;;;;;;;;;8357484;28;20116;-84
2022/10/24 04:05:05;;;;;;;210.80;98.85;;;;;;;;;;8343100;28;20045;-85
2022/10/24 04:09:08;;;;;;;269.80;135.07;;;;;;;;;;8330636;28;20041;-86
2022/10/24 04:13:12;;;;;;;147.90;57.38;;;;;;;;;;8358304;28;20045;-84
2022/10/24 04:17:17;;;;;;;190.45;95.53;;;;;;;;;;8352309;28;20073;-85
2022/10/24 04:21:20;;;;;;;169.85;65.05;;;;;;;;;;8344509;28;20049;-87
2022/10/24 04:25:22;;;;;;;94.90;31.95;;;;;;;;;;8353629;28;20052;-85
2022/10/24 04:29:26;;;;;;;130.25;61.03;;;;;;;;;;8356948;28;20045;-84
2022/10/24 04:33:28;;;;;;;127.72;62.85;;;;;;;;;;8348461;28;20060;-85
2022/10/24 04:37:31;;;;;;;151.10;80.20;;;;;;;;;;8367243;28;20491;-86
2022/10/24 04:41:33;;;;;;;67.63;27.35;;;;;;;;;;8354113;28;20071;-85
2022/10/24 04:45:37;;;;;;;100.65;40.00;;;;;;;;;;8367290;28;20718;-85
2022/10/24 04:49:40;;;;;;;82.70;33.78;;;;;;;;;;8366809;28;20139;-87
2022/10/24 04:53:42;;;;;;;73.75;32.08;;;;;;;;;;8351335;28;20061;-84
2022/10/24 04:57:44;;;;;;;145.20;82.15;;;;;;;;;;8353285;28;20072;-85
2022/10/24 05:01:48;;;;;;;83.10;31.52;;;;;;;;;;8334273;28;20052;-85
2022/10/24 05:05:51;;;;;;;27.63;13.50;;;;;;;;;;8359493;28;20049;-84
2022/10/24 05:09:53;;;;;;;74.97;39.95;;;;;;;;;;8366101;28;20048;-85
2022/10/24 05:13:56;;;;;;;107.13;59.00;;;;;;;;;;8366323;28;20120;-85
2022/10/24 05:18:00;;;;;;;110.32;65.80;;;;;;;;;;8362729;28;20512;-86
2022/10/24 05:22:02;;;;;;;64.05;32.65;;;;;;;;;;8340916;28;20128;-86
2022/10/24 05:26:05;;;;;;;174.73;113.68;;;;;;;;;;8353563;28;20479;-87
2022/10/24 05:30:08;;;;;;;112.63;65.18;;;;;;;;;;8350003;28;20067;-86
2022/10/24 05:34:12;;;;;;;88.88;45.70;;;;;;;;;;8365301;28;20782;-85
2022/10/24 05:38:14;;;;;;;93.85;43.97;;;;;;;;;;8352554;28;20068;-85
2022/10/24 05:42:17;;;;;;;92.05;44.17;;;;;;;;;;8344835;28;20063;-85
2022/10/24 05:46:19;;;;;;;55.97;25.13;;;;;;;;;;8363775;28;20048;-85
2022/10/24 05:50:23;;;;;;;59.10;25.83;;;;;;;;;;8364984;28;20528;-84
2022/10/24 05:54:26;;;;;;;78.30;36.60;;;;;;;;;;8363540;28;20140;-84
2022/10/24 05:58:28;;;;;;;72.55;42.50;;;;;;;;;;8351944;28;20585;-83
2022/10/24 06:02:30;;;;;;;33.00;17.50;;;;;;;;;;8353051;28;20076;-83
2022/10/24 06:06:39;;;;;;;38.80;19.35;;;;;;;;;;8331303;28;20053;-84
2022/10/24 06:10:41;;;;;;;35.38;17.83;;;;;;;;;;8353989;28;20124;-83
2022/10/24 06:14:44;;;;;;;39.40;19.00;;;;;;;;;;8330689;28;20052;-83
2022/10/24 06:18:46;;;;;;;35.28;17.23;;;;;;;;;;8332270;28;20495;-83
2022/10/24 06:22:50;;;;;;;36.38;17.15;;;;;;;;;;8335438;28;20048;-88
2022/10/24 06:26:54;;;;;;;98.28;60.35;;;;;;;;;;8302648;28;20072;-84
2022/10/24 06:30:57;;;;;;;34.08;21.35;;;;;;;;;;8337620;28;20045;-85
2022/10/24 06:35:00;;;;;;;45.97;28.20;;;;;;;;;;8331449;28;20051;-85
2022/10/24 06:39:05;;;;;;;41.75;25.75;;;;;;;;;;8330656;28;20127;-86
2022/10/24 06:43:07;;;;;;;43.50;28.00;;;;;;;;;;8356447;28;20496;-84
2022/10/24 06:47:09;;;;;;;36.33;24.30;;;;;;;;;;8327208;28;20045;-85
2022/10/24 06:51:15;;;;;;;28.45;17.30;;;;;;;;;;8345114;28;20053;-85
2022/10/24 06:55:20;;;;;;;29.33;20.45;;;;;;;;;;8320963;28;20769;-85
2022/10/24 06:59:23;;;;;;;30.70;21.77;;;;;;;;;;8337537;28;20792;-84
2022/10/24 07:03:27;;;;;;;18.77;11.35;;;;;;;;;;8328530;28;20172;-84
2022/10/24 07:07:29;;;;;;;21.77;13.57;;;;;;;;;;8334363;28;20044;-85
2022/10/24 07:11:33;;;;;;;27.80;18.80;;;;;;;;;;8324962;28;20053;-84
2022/10/24 07:15:35;;;;;;;30.58;19.10;;;;;;;;;;8306168;28;20540;-86
2022/10/24 07:19:39;;;;;;;36.05;29.70;;;;;;;;;;8324215;28;20050;-84
2022/10/24 07:23:42;;;;;;;31.38;21.02;;;;;;;;;;8338404;28;20049;-84
2022/10/24 07:27:46;;;;;;;16.95;10.32;;;;;;;;;;8324741;28;20129;-85
2022/10/24 07:31:48;;;;;;;14.65;9.82;;;;;;;;;;8324467;28;20042;-85
2022/10/24 07:35:51;;;;;;;16.88;8.77;;;;;;;;;;8324748;28;20058;-85
2022/10/24 07:39:53;;;;;;;12.98;8.48;;;;;;;;;;8324439;28;20417;-86
2022/10/24 07:43:59;;;;;;;13.82;8.98;;;;;;;;;;8338660;28;20481;-85
2022/10/24 07:48:04;;;;;;;16.88;9.10;;;;;;;;;;8322782;28;20050;-87
2022/10/24 07:52:07;;;;;;;15.45;8.98;;;;;;;;;;8321853;28;20045;-86
2022/10/24 07:56:13;;;;;;;16.20;8.95;;;;;;;;;;8280267;28;20051;-86
2022/10/24 08:00:18;;;;;;;14.13;9.75;;;;;;;;;;8285636;28;20054;-86
2022/10/24 08:04:20;;;;;;;15.25;9.02;;;;;;;;;;8289006;28;20046;-87
2022/10/24 08:08:22;;;;;;;13.98;8.48;;;;;;;;;;8297615;28;20053;-85
2022/10/24 08:12:25;;;;;;;32.40;16.63;;;;;;;;;;8311593;28;20575;-85
2022/10/24 08:16:29;;;;;;;17.70;10.30;;;;;;;;;;8297643;28;20048;-85
2022/10/24 08:20:31;;;;;;;25.02;13.73;;;;;;;;;;8297746;28;20050;-86
2022/10/24 08:24:34;;;;;;;13.60;8.05;;;;;;;;;;8297055;28;20100;-86
2022/10/24 08:28:36;;;;;;;13.65;8.07;;;;;;;;;;8297521;28;20061;-86
2022/10/24 08:32:40;;;;;;;12.77;8.40;;;;;;;;;;8296604;28;20069;-87
2022/10/24 08:36:43;;;;;;;11.73;6.80;;;;;;;;;;8296668;28;20053;-87
2022/10/24 08:40:48;;;;;;;10.98;6.60;;;;;;;;;;8310428;28;20056;-86
2022/10/24 08:44:51;;;;;;;12.20;8.20;;;;;;;;;;8296800;28;20089;-86
2022/10/24 08:49:02;;;;;;;29.75;15.32;;;;;;;;;;8296410;28;20100;-86
2022/10/24 08:53:09;;;;;;;33.90;17.83;;;;;;;;;;8296193;28;20056;-89
2022/10/24 08:57:20;;;;;;;15.45;7.63;;;;;;;;;;8296631;28;20101;-86
2022/10/24 09:01:30;;;;;;;37.58;19.25;;;;;;;;;;8279654;28;20121;-87
2022/10/24 09:05:38;;;;;;;11.40;6.90;;;;;;;;;;8296020;28;20049;-86
2022/10/24 09:09:45;;;;;;;12.98;8.35;;;;;;;;;;8283181;28;20053;-86
2022/10/24 09:13:48;;;;;;;18.27;9.85;;;;;;;;;;8295555;28;20080;-86
2022/10/24 09:17:51;;;;;;;10.13;6.20;;;;;;;;;;8295215;28;20429;-86
2022/10/24 09:21:57;;;;;;;12.23;6.68;;;;;;;;;;8309495;28;20053;-85
2022/10/24 09:26:00;;;;;;;15.07;8.68;;;;;;;;;;8282337;28;20096;-87
2022/10/24 09:30:03;;;;;;;15.27;8.02;;;;;;;;;;8295399;28;20069;-86
2022/10/24 09:34:06;;;;;;;16.48;7.35;;;;;;;;;;8294621;28;20053;-86
2022/10/24 09:38:35;;;;;;;16.90;9.15;;;;;;;;;;8294966;28;20046;-86
2022/10/24 09:42:38;;;;;;;11.13;6.70;;;;;;;;;;8294824;28;20418;-86
2022/10/24 09:46:46;;;;;;;17.20;10.10;;;;;;;;;;8300465;28;20058;-86
2022/10/24 09:50:51;;;;;;;9.70;6.63;;;;;;;;;;8294748;28;20049;-87
2022/10/24 09:55:15;;;;;;;17.58;10.35;;;;;;;;;;8308083;28;20075;-87
2022/10/24 09:59:27;;;;;;;12.68;6.32;;;;;;;;;;8301043;28;20449;-85
2022/10/24 10:03:29;;;;;;;22.90;13.70;;;;;;;;;;8294002;28;20041;-88
2022/10/24 10:07:33;;;;;;;20.73;12.80;;;;;;;;;;8319672;28;20045;-86
2022/10/24 10:11:37;;;;;;;20.27;10.15;;;;;;;;;;8353081;28;20041;-85
2022/10/24 10:15:47;;;;;;;21.95;11.88;;;;;;;;;;8312947;28;20233;-85
2022/10/24 10:19:52;;;;;;;31.73;15.57;;;;;;;;;;8312881;28;20125;-85
2022/10/24 10:23:56;;;;;;;15.25;8.30;;;;;;;;;;8339430;28;20055;-88
2022/10/24 10:28:00;;;;;;;19.65;11.02;;;;;;;;;;8328342;28;20056;-87
2022/10/24 10:32:14;;;;;;;23.05;11.07;;;;;;;;;;8319124;28;20445;-87
2022/10/24 10:36:22;;;;;;;11.45;6.85;;;;;;;;;;8331458;28;20045;-88
2022/10/24 10:40:31;;;;;;;9.23;5.82;;;;;;;;;;8351916;28;20037;-86
2022/10/24 10:44:59;;;;;;;7.97;4.32;;;;;;;;;;8326068;28;20053;-86
2022/10/24 10:49:12;;;;;;;8.85;5.82;;;;;;;;;;8337763;28;20041;-86
2022/10/24 10:53:31;;;;;;;9.02;5.57;;;;;;;;;;8313610;28;20049;-85
2022/10/24 10:57:42;;;;;;;18.13;9.23;;;;;;;;;;8330328;28;20046;-86
2022/10/24 11:01:52;;;;;;;10.70;7.13;;;;;;;;;;8335194;28;20489;-86
2022/10/24 11:06:05;;;;;;;8.85;5.20;;;;;;;;;;8316644;28;20057;-86
2022/10/24 11:10:10;;;;;;;13.85;6.32;;;;;;;;;;8321593;28;20048;-86
2022/10/24 11:14:24;;;;;;;14.25;5.82;;;;;;;;;;8310945;28;20495;-86
2022/10/24 11:18:32;;;;;;;9.52;5.63;;;;;;;;;;8334697;28;20581;-86
2022/10/24 11:22:40;;;;;;;10.48;5.30;;;;;;;;;;8357735;28;20062;-86
2022/10/24 11:26:47;;;;;;;9.25;5.45;;;;;;;;;;8357564;28;20052;-85
2022/10/24 11:30:52;;;;;;;9.98;5.80;;;;;;;;;;8340047;28;20052;-85
2022/10/24 11:35:00;;;;;;;11.70;5.10;;;;;;;;;;8306749;28;20513;-86
2022/10/24 11:39:10;;;;;;;9.40;5.00;;;;;;;;;;8334685;28;20056;-86
2022/10/24 11:43:21;;;;;;;11.50;6.68;;;;;;;;;;8314638;28;20623;-87
2022/10/24 11:47:48;;;;;;;11.20;6.20;;;;;;;;;;8335128;28;20050;-85
2022/10/24 11:51:57;;;;;;;10.75;4.85;;;;;;;;;;8310086;28;20144;-87
2022/10/24 11:56:03;;;;;;;11.52;5.05;;;;;;;;;;8307429;28;20073;-87
2022/10/24 12:00:07;;;;;;;11.38;5.07;;;;;;;;;;8297998;28;20475;-86
2022/10/24 12:04:42;;;;;;;9.32;5.25;;;;;;;;;;8311395;28;20042;-88
2022/10/24 12:09:22;;;;;;;9.73;5.10;;;;;;;;;;8295483;28;20148;-88
2022/10/24 12:13:47;;;;;;;9.60;4.95;;;;;;;;;;8286871;28;20564;-86
2022/10/24 12:18:09;;;;;;;9.93;5.20;;;;;;;;;;8286308;28;20053;-87
2022/10/24 12:22:16;;;;;;;8.05;4.45;;;;;;;;;;8287142;28;20046;-87
2022/10/24 12:26:26;;;;;;;9.82;6.18;;;;;;;;;;8284619;28;20052;-87
2022/10/24 12:30:32;;;;;;;14.35;7.15;;;;;;;;;;8296927;28;20050;-86
2022/10/24 12:34:43;;;;;;;14.70;7.82;;;;;;;;;;8316031;28;20516;-85
2022/10/24 12:39:04;;;;;;;10.43;5.10;;;;;;;;;;8281491;28;20042;-86
2022/10/24 12:43:32;;;;;;;11.15;4.93;;;;;;;;;;8331853;28;20053;-86
2022/10/24 12:47:39;;;;;;;9.77;4.50;;;;;;;;;;8333417;28;20065;-86
2022/10/24 12:51:42;;;;;;;10.05;4.50;;;;;;;;;;8332644;28;20045;-89
2022/10/24 12:56:07;;;;;;;10.70;4.07;;;;;;;;;;8355450;28;20063;-86
2022/10/24 13:00:24;;;;;;;10.57;4.90;;;;;;;;;;8338975;28;20053;-86
2022/10/24 13:04:47;;;;;;;9.93;4.38;;;;;;;;;;8328806;28;20497;-86
2022/10/24 13:09:13;;;;;;;7.53;3.72;;;;;;;;;;8359035;28;20131;-89
2022/10/24 13:13:51;;;;;;;11.35;4.35;;;;;;;;;;8366374;28;20124;-86
2022/10/24 13:18:07;;;;;;;9.65;4.20;;;;;;;;;;8366211;28;20072;-90
2022/10/24 13:22:27;;;;;;;5.80;3.20;;;;;;;;;;8352085;28;20046;-88
2022/10/24 13:26:39;;;;;;;7.05;3.83;;;;;;;;;;8347063;28;20089;-86
2022/10/24 13:30:41;;;;;;;8.63;3.85;;;;;;;;;;8359901;28;20048;-89
2022/10/24 13:34:52;;;;;;;7.57;4.05;;;;;;;;;;8365679;28;20489;-86
2022/10/24 13:38:57;;;;;;;12.13;4.68;;;;;;;;;;8365863;28;20044;-87
2022/10/24 13:43:02;;;;;;;8.55;4.60;;;;;;;;;;8365511;28;20045;-85
2022/10/24 13:47:15;;;;;;;7.93;3.78;;;;;;;;;;8365394;28;20420;-87
2022/10/24 13:51:23;;;;;;;13.20;4.45;;;;;;;;;;8337040;28;20041;-86
2022/10/24 13:55:30;;;;;;;7.60;3.63;;;;;;;;;;8364972;28;20076;-87
2022/10/24 13:59:35;;;;;;;6.43;3.70;;;;;;;;;;8336653;28;20406;-86
2022/10/24 14:03:43;;;;;;;8.07;4.22;;;;;;;;;;8364890;28;20125;-86
2022/10/24 14:07:48;;;;;;;7.65;3.95;;;;;;;;;;8364978;28;20404;-89
2022/10/24 14:11:51;;;;;;;7.07;3.80;;;;;;;;;;8364333;28;20041;-89
2022/10/24 14:15:57;;;;;;;9.38;4.38;;;;;;;;;;8364285;28;20106;-86
2022/10/24 14:20:02;;;;;;;9.07;4.00;;;;;;;;;;8336085;28;20042;-86
2022/10/24 14:24:10;;;;;;;8.43;4.88;;;;;;;;;;8350350;28;20041;-86
2022/10/24 14:28:16;;;;;;;59.65;29.45;;;;;;;;;;8363833;28;20049;-87
2022/10/24 14:32:19;;;;;;;28.77;17.75;;;;;;;;;;8362361;28;20481;-86
2022/10/24 14:36:24;;;;;;;20.98;14.13;;;;;;;;;;8330649;28;20064;-86
2022/10/24 14:40:30;;;;;;;12.07;5.78;;;;;;;;;;8329050;28;20051;-87
2022/10/24 14:44:32;;;;;;;15.00;9.25;;;;;;;;;;8355328;28;20504;-86
2022/10/24 14:48:36;;;;;;;19.00;15.13;;;;;;;;;;8344330;28;20118;-86
2022/10/24 14:52:41;;;;;;;29.98;26.85;;;;;;;;;;8363188;28;20389;-86
2022/10/24 14:56:46;;;;;;;13.75;6.88;;;;;;;;;;8342526;28;20476;-86
2022/10/24 15:00:48;;;;;;;9.57;6.13;;;;;;;;;;8330048;28;20394;-87
2022/10/24 15:04:52;;;;;;;9.10;5.20;;;;;;;;;;8360972;28;20052;-89
2022/10/24 15:09:07;;;;;;;10.38;5.35;;;;;;;;;;8362950;28;20037;-85
2022/10/24 15:13:14;;;;;;;9.05;5.20;;;;;;;;;;8361264;28;20056;-86
2022/10/24 15:17:27;;;;;;;9.38;6.22;;;;;;;;;;8362803;28;20436;-85
2022/10/24 15:21:35;;;;;;;11.13;6.18;;;;;;;;;;8348120;28;20042;-86
2022/10/24 15:25:38;;;;;;;17.10;6.18;;;;;;;;;;8357797;28;20068;-86
2022/10/24 15:29:42;;;;;;;9.60;6.10;;;;;;;;;;8344804;28;20157;-90
2022/10/24 15:33:45;;;;;;;11.93;6.30;;;;;;;;;;8322611;28;20046;-88
2022/10/24 15:37:54;;;;;;;16.55;6.57;;;;;;;;;;8319826;28;20496;-89
2022/10/24 15:42:04;;;;;;;13.07;6.95;;;;;;;;;;8329585;28;20045;-89
2022/10/24 15:46:18;;;;;;;11.73;7.38;;;;;;;;;;8318290;28;20659;-87
2022/10/24 15:50:25;;;;;;;16.75;7.93;;;;;;;;;;8303276;28;20042;-88
2022/10/24 15:54:32;;;;;;;19.58;9.75;;;;;;;;;;8323219;28;20138;-88
2022/10/24 15:58:49;;;;;;;56.70;26.05;;;;;;;;;;8327628;28;20401;-88
2022/10/24 16:03:06;;;;;;;32.15;22.77;;;;;;;;;;8323828;28;20392;-88
2022/10/24 16:07:17;;;;;;;22.88;12.40;;;;;;;;;;8330499;28;20083;-88
2022/10/24 16:11:23;;;;;;;55.78;24.52;;;;;;;;;;8310773;28;20128;-87
2022/10/24 16:15:33;;;;;;;64.38;33.17;;;;;;;;;;8310615;28;20445;-92
2022/10/24 16:19:38;;;;;;;36.50;20.45;;;;;;;;;;8312518;28;20379;-87
2022/10/24 16:23:48;;;;;;;41.80;19.10;;;;;;;;;;8306402;28;20399;-88
2022/10/24 16:28:13;;;;;;;;;;;;;;;;;;8305086;28;20050;-89
2022/10/24 16:32:17;;;;;;;133.63;49.03;;;;;;;;;;8328244;28;19929;-90
2022/10/24 16:36:31;;;;;;;125.35;44.35;;;;;;;;;;8317587;28;20053;-88
2022/10/24 16:40:39;;;;;;;103.75;54.63;;;;;;;;;;8344577;28;20045;-89
2022/10/24 16:44:42;;;;;;;77.65;45.83;;;;;;;;;;8326701;28;20107;-91
2022/10/24 16:49:07;;;;;;;77.25;44.85;;;;;;;;;;8337305;28;20627;-88
2022/10/24 16:53:17;;;;;;;93.45;52.47;;;;;;;;;;8341889;28;20102;-91
2022/10/24 16:57:19;;;;;;;70.50;39.78;;;;;;;;;;8336344;28;20050;-89
2022/10/24 17:01:22;;;;;;;94.50;55.47;;;;;;;;;;8312104;28;20045;-89
2022/10/24 17:05:27;;;;;;;75.13;46.55;;;;;;;;;;8314682;28;20068;-88
2022/10/24 17:09:32;;;;;;;72.63;43.33;;;;;;;;;;8321650;28;20616;-90
2022/10/24 17:13:37;;;;;;;114.45;52.08;;;;;;;;;;8323713;28;20120;-87
2022/10/24 17:17:40;;;;;;;90.63;46.38;;;;;;;;;;8323490;28;20053;-87
2022/10/24 17:21:45;;;;;;;72.90;39.10;;;;;;;;;;8321957;28;20045;-87
2022/10/24 17:25:50;;;;;;;70.82;34.72;;;;;;;;;;8339297;28;20072;-87
2022/10/24 17:29:53;;;;;;;42.08;24.50;;;;;;;;;;8327357;28;20408;-91
2022/10/24 17:33:56;;;;;;;43.88;21.27;;;;;;;;;;8326838;28;20131;-87
2022/10/24 17:38:10;;;;;;;60.50;23.13;;;;;;;;;;8320501;28;20107;-89
2022/10/24 17:42:15;;;;;;;76.97;29.70;;;;;;;;;;8303778;28;20056;-87
2022/10/24 17:46:18;;;;;;;62.05;24.00;;;;;;;;;;8327475;28;20081;-89
2022/10/24 17:50:21;;;;;;;77.40;30.70;;;;;;;;;;8298821;28;20042;-90
2022/10/24 17:54:23;;;;;;;67.57;28.67;;;;;;;;;;8324079;28;20057;-90
2022/10/24 17:58:28;;;;;;;83.10;25.75;;;;;;;;;;8299365;28;20092;-87
2022/10/24 18:02:30;;;;;;;100.68;35.15;;;;;;;;;;8326024;28;20049;-91
2022/10/24 18:06:35;;;;;;;98.78;32.47;;;;;;;;;;8327821;28;20124;-87
2022/10/24 18:10:39;;;;;;;86.00;31.77;;;;;;;;;;8342307;28;20056;-89
2022/10/24 18:14:44;;;;;;;77.40;32.58;;;;;;;;;;8317332;28;20484;-91
2022/10/24 18:19:01;;;;;;;95.05;36.85;;;;;;;;;;8320110;28;20052;-88
2022/10/24 18:23:09;;;;;;;57.80;26.98;;;;;;;;;;8332003;28;20053;-89
2022/10/24 18:27:30;;;;;;;69.32;28.05;;;;;;;;;;8334847;28;20041;-88
2022/10/24 18:32:29;;;;;;;83.38;41.58;;;;;;;;;;8306505;28;20135;-87
2022/10/24 18:37:05;;;;;;;61.92;31.40;;;;;;;;;;8315258;28;20058;-86
2022/10/24 18:41:58;;;;;;;35.25;15.25;;;;;;;;;;8323326;28;20577;-86
2022/10/24 18:46:25;;;;;;;41.83;16.67;;;;;;;;;;8322375;28;20545;-89
2022/10/24 18:50:59;;;;;;;151.60;71.78;;;;;;;;;;8319578;28;20053;-87
2022/10/24 18:55:25;;;;;;;107.20;45.33;;;;;;;;;;8322701;28;20057;-91
2022/10/24 18:59:38;;;;;;;70.90;31.67;;;;;;;;;;8322930;28;20468;-87
2022/10/24 19:03:45;;;;;;;105.68;39.88;;;;;;;;;;8320735;28;20434;-87
2022/10/24 19:07:53;;;;;;;87.28;36.22;;;;;;;;;;8322698;28;20084;-90
2022/10/24 19:11:56;;;;;;;134.07;53.28;;;;;;;;;;8321531;28;20052;-88
2022/10/24 19:16:00;;;;;;;90.28;38.72;;;;;;;;;;8318189;28;20053;-89
2022/10/24 19:20:03;;;;;;;134.57;55.13;;;;;;;;;;8330396;28;20077;-89
2022/10/24 19:24:09;;;;;;;130.65;54.58;;;;;;;;;;8323379;28;20044;-90
2022/10/24 19:28:26;;;;;;;122.43;45.88;;;;;;;;;;8329293;28;20410;-86
2022/10/24 19:32:31;;;;;;;76.38;34.00;;;;;;;;;;8329625;28;20470;-86
2022/10/24 19:36:38;;;;;;;91.75;37.47;;;;;;;;;;8336941;28;20065;-89
2022/10/24 19:40:48;;;;;;;93.25;37.28;;;;;;;;;;8342745;28;20531;-88
2022/10/24 19:44:55;;;;;;;104.53;45.00;;;;;;;;;;8334184;28;20044;-91
2022/10/24 19:48:58;;;;;;;76.15;31.05;;;;;;;;;;8329711;28;20049;-87
2022/10/24 19:53:14;;;;;;;73.88;32.13;;;;;;;;;;8338229;28;20101;-90
2022/10/24 19:57:20;;;;;;;69.53;29.95;;;;;;;;;;8336852;28;20041;-91
2022/10/24 20:01:26;;;;;;;65.35;29.13;;;;;;;;;;8328286;28;20049;-89
2022/10/24 20:05:31;;;;;;;67.90;28.95;;;;;;;;;;8338770;28;20551;-87
2022/10/24 20:09:35;;;;;;;64.75;28.40;;;;;;;;;;8351851;28;20053;-89
2022/10/24 20:13:46;;;;;;;56.50;24.27;;;;;;;;;;8327865;28;20370;-87
2022/10/24 20:17:57;;;;;;;52.40;21.98;;;;;;;;;;8322076;28;20049;-86
2022/10/24 20:22:02;;;;;;;44.33;19.75;;;;;;;;;;8307871;28;20420;-88
2022/10/24 20:26:08;;;;;;;59.78;24.60;;;;;;;;;;8356545;28;20091;-90
2022/10/24 20:30:13;;;;;;;54.22;24.35;;;;;;;;;;8366940;28;20064;-89
2022/10/24 20:34:17;;;;;;;53.92;24.42;;;;;;;;;;8367364;28;20040;-90
2022/10/24 20:38:20;;;;;;;58.35;27.20;;;;;;;;;;8367656;28;20540;-88
2022/10/24 20:42:22;;;;;;;57.90;29.63;;;;;;;;;;8367370;28;20045;-89
2022/10/24 20:46:26;;;;;;;61.10;26.88;;;;;;;;;;8367471;28;20489;-90
2022/10/24 20:50:30;;;;;;;44.88;20.92;;;;;;;;;;8362856;28;20069;-85
2022/10/24 20:54:32;;;;;;;56.10;27.88;;;;;;;;;;8350665;28;20053;-91
2022/10/24 20:58:37;;;;;;;50.35;23.95;;;;;;;;;;8356224;28;20053;-90
2022/10/24 21:02:41;;;;;;;64.65;27.40;;;;;;;;;;8364580;28;20500;-88
2022/10/24 21:06:44;;;;;;;56.53;24.95;;;;;;;;;;8366766;28;20079;-91
2022/10/24 21:10:46;;;;;;;52.67;25.33;;;;;;;;;;8366098;28;20049;-90
2022/10/24 21:14:52;;;;;;;51.50;25.23;;;;;;;;;;8347474;28;20053;-90
2022/10/24 21:18:57;;;;;;;46.28;21.05;;;;;;;;;;8343477;28;20051;-90
2022/10/24 21:23:00;;;;;;;48.03;22.83;;;;;;;;;;8352150;28;20140;-86
2022/10/24 21:27:02;;;;;;;48.25;21.05;;;;;;;;;;8366434;28;20083;-91
2022/10/24 21:31:05;;;;;;;42.58;19.30;;;;;;;;;;8361020;28;20092;-91
2022/10/24 21:35:09;;;;;;;45.45;19.42;;;;;;;;;;8357349;28;20076;-89
2022/10/24 21:39:13;;;;;;;52.65;23.50;;;;;;;;;;8365788;28;20053;-90
2022/10/24 21:43:15;;;;;;;50.33;21.73;;;;;;;;;;8366241;28;20123;-91
2022/10/24 21:47:18;;;;;;;40.67;18.58;;;;;;;;;;8338978;28;20052;-89
2022/10/24 21:51:24;;;;;;;46.65;19.95;;;;;;;;;;8332546;28;20521;-88
2022/10/24 21:55:27;;;;;;;52.90;21.55;;;;;;;;;;8309011;28;20133;-91
2022/10/24 21:59:29;;;;;;;56.83;25.33;;;;;;;;;;8295159;28;20497;-91
2022/10/24 22:03:33;;;;;;;45.22;21.27;;;;;;;;;;8293106;28;20050;-90
2022/10/24 22:07:49;;;;;;;52.25;23.25;;;;;;;;;;8296485;28;20482;-91
2022/10/24 22:11:56;;;;;;;54.63;24.23;;;;;;;;;;8294404;28;20042;-92
2022/10/24 22:15:58;;;;;;;54.15;24.88;;;;;;;;;;8295137;28;20038;-91
2022/10/24 22:20:04;;;;;;;69.63;31.95;;;;;;;;;;8298152;28;20069;-90
2022/10/24 22:24:09;;;;;;;54.00;24.58;;;;;;;;;;8298616;28;20132;-89
2022/10/24 22:28:12;;;;;;;48.47;22.20;;;;;;;;;;8331837;28;20544;-90
2022/10/24 22:32:15;;;;;;;49.38;22.48;;;;;;;;;;8331339;28;20041;-86
2022/10/24 22:36:24;;;;;;;43.88;19.73;;;;;;;;;;8331225;28;20049;-90
2022/10/24 22:40:30;;;;;;;48.30;22.23;;;;;;;;;;8331297;28;20129;-90
2022/10/24 22:44:33;;;;;;;44.85;19.77;;;;;;;;;;8301168;28;20042;-88
2022/10/24 22:48:39;;;;;;;42.70;18.73;;;;;;;;;;8289582;28;20509;-86
2022/10/24 22:52:43;;;;;;;46.05;20.35;;;;;;;;;;8297496;28;20056;-89
2022/10/24 22:56:47;;;;;;;48.55;19.33;;;;;;;;;;8336197;28;20729;-86
2022/10/24 23:00:54;;;;;;;51.03;17.60;;;;;;;;;;8330610;28;20087;-91
2022/10/24 23:05:03;;;;;;;48.10;18.80;;;;;;;;;;8330075;28;20464;-90
2022/10/24 23:09:06;;;;;;;48.15;20.20;;;;;;;;;;8330753;28;20521;-89
2022/10/24 23:13:10;;;;;;;50.40;20.00;;;;;;;;;;8329934;28;20065;-91
2022/10/24 23:17:23;;;;;;;55.35;20.88;;;;;;;;;;8330436;28;20469;-87
2022/10/24 23:21:31;;;;;;;59.30;21.60;;;;;;;;;;8325923;28;20052;-91
2022/10/24 23:25:35;;;;;;;53.53;20.13;;;;;;;;;;8332170;28;20056;-87
2022/10/24 23:29:40;;;;;;;63.13;21.67;;;;;;;;;;8330119;28;20058;-86
2022/10/24 23:33:43;;;;;;;54.22;18.63;;;;;;;;;;8329091;28;20478;-90
2022/10/24 23:37:48;;;;;;;53.97;19.23;;;;;;;;;;8329809;28;20472;-90
2022/10/24 23:41:51;;;;;;;52.00;18.77;;;;;;;;;;8329414;28;20052;-89
2022/10/24 23:46:02;;;;;;;53.28;18.02;;;;;;;;;;8329677;28;20112;-90
2022/10/24 23:50:12;;;;;;;48.33;17.93;;;;;;;;;;8329228;28;20145;-90
2022/10/24 23:54:25;;;;;;;250.63;23.05;;;;;;;;;;8329225;28;20085;-90
2022/10/24 23:58:27;;;;;;;45.60;16.15;;;;;;;;;;8325110;28;20478;-90
